createdAt,value
2019-05-06T00:01:15.020Z,99389.73
2019-05-06T00:03:44.288Z,99392.73
2019-05-06T00:06:14.532Z,99390.33
2019-05-06T00:08:44.091Z,99388.56
2019-05-06T00:11:14.214Z,99392.84
2019-05-06T00:13:44.541Z,99393.25
2019-05-06T00:16:14.451Z,99391.91
2019-05-06T00:18:44.892Z,99386.81
2019-05-06T00:21:14.902Z,99388.70
2019-05-06T00:23:48.751Z,99388.50
2019-05-06T00:26:24.336Z,99383.31
2019-05-06T00:28:55.206Z,99389.63
2019-05-06T00:31:25.233Z,99393.70
2019-05-06T00:33:54.473Z,99390.28
2019-05-06T00:36:23.902Z,99389.89
2019-05-06T00:38:54.816Z,99387.16
2019-05-06T00:41:28.541Z,99383.91
2019-05-06T00:43:57.730Z,99380.84
2019-05-06T00:46:26.997Z,99377.41
2019-05-06T00:48:56.236Z,99379.42
2019-05-06T00:51:25.531Z,99377.06
2019-05-06T00:53:59.123Z,99377.06
2019-05-06T00:56:28.366Z,99378.47
2019-05-06T00:58:57.578Z,99373.34
2019-05-06T01:01:29.630Z,99368.37
2019-05-06T01:03:57.779Z,99368.52
2019-05-06T01:06:27.017Z,99371.25
2019-05-06T01:08:56.267Z,99367.35
2019-05-06T01:11:25.507Z,99379.25
2019-05-06T01:13:56.351Z,99383.42
2019-05-06T01:16:25.690Z,99374.32
2019-05-06T01:18:55.035Z,99372.41
2019-05-06T01:21:24.201Z,99375.13
2019-05-06T01:23:54.525Z,99375.31
2019-05-06T01:26:24.365Z,99372.48
2019-05-06T01:28:54.650Z,99374.98
2019-05-06T01:31:28.908Z,99372.80
2019-05-06T01:33:55.360Z,99381.45
2019-05-06T01:36:25.003Z,99372.80
2019-05-06T01:38:56.118Z,99371.27
2019-05-06T01:41:39.389Z,99371.27
2019-05-06T01:44:08.662Z,99363.78
2019-05-06T01:46:37.926Z,99373.13
2019-05-06T01:49:07.188Z,99363.44
2019-05-06T01:51:36.524Z,99363.04
2019-05-06T01:54:05.813Z,99361.70
2019-05-06T01:56:35.056Z,99363.49
2019-05-06T01:59:04.737Z,99373.69
2019-05-06T02:01:34.400Z,99382.29
2019-05-06T02:04:04.414Z,99379.71
2019-05-06T02:06:34.503Z,99374.01
2019-05-06T02:09:05.360Z,99379.16
2019-05-06T02:11:34.550Z,99369.48
2019-05-06T02:14:04.804Z,99379.73
2019-05-06T02:16:34.478Z,99377.63
2019-05-06T02:19:04.255Z,99377.80
2019-05-06T02:21:35.179Z,99379.20
2019-05-06T02:24:15.690Z,99375.42
2019-05-06T02:26:45.003Z,99372.48
2019-05-06T02:29:34.098Z,99368.19
2019-05-06T02:32:17.174Z,99367.24
2019-05-06T02:34:37.478Z,99363.73
2019-05-06T02:37:19.413Z,99367.81
2019-05-06T02:39:48.643Z,99367.97
2019-05-06T02:42:17.873Z,99376.87
2019-05-06T02:44:47.200Z,99360.21
2019-05-06T02:47:18.148Z,99367.22
2019-05-06T02:49:49.028Z,99366.53
2019-05-06T02:52:18.203Z,99370.22
2019-05-06T02:54:47.498Z,99377.26
2019-05-06T02:57:16.675Z,99379.38
2019-05-06T02:59:45.840Z,99371.32
2019-05-06T03:02:15.185Z,99371.53
2019-05-06T03:04:44.379Z,99368.48
2019-05-06T03:07:14.482Z,99373.39
2019-05-06T03:09:44.685Z,99370.72
2019-05-06T03:12:14.164Z,99375.46
2019-05-06T03:14:43.900Z,99372.93
2019-05-06T03:17:14.244Z,99378.23
2019-05-06T03:19:45.941Z,99373.63
2019-05-06T03:22:34.472Z,99373.46
2019-05-06T03:25:06.961Z,99370.49
2019-05-06T03:27:35.351Z,99376.31
2019-05-06T03:30:06.669Z,99366.67
2019-05-06T03:32:38.163Z,99368.67
2019-05-06T03:35:31.454Z,99371.34
2019-05-06T03:37:38.496Z,99372.33
2019-05-06T03:40:07.770Z,99365.76
2019-05-06T03:42:36.946Z,99364.09
2019-05-06T03:45:08.974Z,99360.84
2019-05-06T03:47:57.945Z,99355.42
2019-05-06T03:50:27.198Z,99348.81
2019-05-06T03:52:56.684Z,99354.88
2019-05-06T03:55:26.443Z,99352.20
2019-05-06T03:57:57.329Z,99361.73
2019-05-06T04:00:26.625Z,99361.59
2019-05-06T04:02:56.060Z,99355.44
2019-05-06T04:05:25.456Z,99354.41
2019-05-06T04:07:54.715Z,99350.38
2019-05-06T04:10:24.010Z,99356.85
2019-05-06T04:12:53.909Z,99356.52
2019-05-06T04:15:26.813Z,99360.03
2019-05-06T04:17:56.094Z,99355.28
2019-05-06T04:20:26.985Z,99354.94
2019-05-06T04:22:57.891Z,99353.40
2019-05-06T04:25:43.200Z,99352.97
2019-05-06T04:28:19.158Z,99358.08
2019-05-06T04:30:49.018Z,99359.73
2019-05-06T04:33:18.382Z,99365.80
2019-05-06T04:35:47.561Z,99355.94
2019-05-06T04:38:16.869Z,99349.92
2019-05-06T04:40:46.140Z,99355.66
2019-05-06T04:43:15.487Z,99364.27
2019-05-06T04:45:44.786Z,99371.00
2019-05-06T04:48:14.645Z,99357.59
2019-05-06T04:50:44.673Z,99363.79
2019-05-06T04:53:14.096Z,99355.80
2019-05-06T04:55:43.984Z,99348.86
2019-05-06T04:58:13.916Z,99353.67
2019-05-06T05:00:44.431Z,99348.01
2019-05-06T05:03:14.929Z,99347.55
2019-05-06T05:05:45.075Z,99336.84
2019-05-06T05:08:14.506Z,99338.34
2019-05-06T05:11:00.530Z,99335.33
2019-05-06T05:13:46.498Z,99338.39
2019-05-06T05:16:33.672Z,99340.69
2019-05-06T05:19:07.240Z,99338.20
2019-05-06T05:21:36.437Z,99340.64
2019-05-06T05:24:05.787Z,99330.07
2019-05-06T05:26:34.990Z,99331.77
2019-05-06T05:29:04.299Z,99331.80
2019-05-06T05:31:34.035Z,99333.84
2019-05-06T05:34:03.254Z,99328.58
2019-05-06T05:36:32.898Z,99337.25
2019-05-06T05:39:03.309Z,99337.41
2019-05-06T05:41:33.166Z,99345.91
2019-05-06T05:44:16.183Z,99351.36
2019-05-06T05:46:45.476Z,99348.48
2019-05-06T05:49:24.436Z,99350.36
2019-05-06T05:51:53.490Z,99351.71
2019-05-06T05:54:23.275Z,99347.53
2019-05-06T05:56:53.054Z,99359.86
2019-05-06T05:59:24.405Z,99363.56
2019-05-06T06:01:54.174Z,99360.01
2019-05-06T06:04:23.364Z,99359.09
2019-05-06T06:06:52.617Z,99358.18
2019-05-06T06:09:23.660Z,99355.86
2019-05-06T06:11:54.497Z,99352.29
2019-05-06T06:14:25.478Z,99348.86
2019-05-06T06:16:56.321Z,99349.41
2019-05-06T06:19:29.915Z,99354.73
2019-05-06T06:22:02.595Z,99349.62
2019-05-06T06:24:33.478Z,99355.55
2019-05-06T06:27:03.242Z,99357.36
2019-05-06T06:29:32.623Z,99355.53
2019-05-06T06:32:09.117Z,99360.77
2019-05-06T06:34:46.428Z,99363.14
2019-05-06T06:37:33.734Z,99354.45
2019-05-06T06:40:04.548Z,99362.48
2019-05-06T06:42:33.794Z,99366.43
2019-05-06T06:45:03.706Z,99357.45
2019-05-06T06:47:33.034Z,99349.17
2019-05-06T06:50:02.891Z,99347.69
2019-05-06T06:52:32.684Z,99354.39
2019-05-06T06:55:02.656Z,99344.29
2019-05-06T06:57:42.597Z,99342.65
2019-05-06T07:00:14.334Z,99349.09
2019-05-06T07:02:53.875Z,99356.01
2019-05-06T07:05:39.737Z,99357.37
2019-05-06T07:08:08.962Z,99354.27
2019-05-06T07:10:44.295Z,99352.86
2019-05-06T07:13:14.746Z,99350.63
2019-05-06T07:15:44.127Z,99347.66
2019-05-06T07:18:13.851Z,99352.53
2019-05-06T07:20:45.016Z,99345.94
2019-05-06T07:23:27.962Z,99342.72
2019-05-06T07:25:57.234Z,99347.03
2019-05-06T07:28:26.526Z,99349.32
2019-05-06T07:30:56.401Z,99332.00
2019-05-06T07:33:25.763Z,99332.14
2019-05-06T07:35:55.049Z,99332.35
2019-05-06T07:38:24.278Z,99329.25
2019-05-06T07:40:55.099Z,99329.13
2019-05-06T07:43:35.082Z,99327.00
2019-05-06T07:46:15.190Z,99335.85
2019-05-06T07:48:44.528Z,99335.55
2019-05-06T07:51:13.835Z,99327.17
2019-05-06T07:53:43.014Z,99341.15
2019-05-06T07:56:12.767Z,99341.42
2019-05-06T07:58:43.306Z,99328.84
2019-05-06T08:01:13.723Z,99329.91
2019-05-06T08:03:43.065Z,99328.63
2019-05-06T08:06:13.287Z,99327.78
2019-05-06T08:08:43.438Z,99322.09
2019-05-06T08:11:12.881Z,99321.40
2019-05-06T08:13:43.526Z,99323.26
2019-05-06T08:16:13.310Z,99320.49
2019-05-06T08:18:42.788Z,99318.28
2019-05-06T08:21:22.655Z,99316.20
2019-05-06T08:23:55.906Z,99324.08
2019-05-06T08:26:25.144Z,99319.37
2019-05-06T08:28:54.517Z,99310.00
2019-05-06T08:31:25.388Z,99301.81
2019-05-06T08:33:54.578Z,99298.06
2019-05-06T08:36:32.920Z,99297.53
2019-05-06T08:39:06.148Z,99290.61
2019-05-06T08:41:35.350Z,99293.88
2019-05-06T08:44:04.708Z,99285.80
2019-05-06T08:46:33.952Z,99279.84
2019-05-06T08:49:03.598Z,99279.23
2019-05-06T08:51:37.524Z,99272.67
2019-05-06T08:54:08.340Z,99274.56
2019-05-06T08:56:37.647Z,99276.10
2019-05-06T08:59:06.894Z,99271.58
2019-05-06T09:01:37.717Z,99281.17
2019-05-06T09:04:12.334Z,99274.22
2019-05-06T09:06:38.164Z,99270.32
2019-05-06T09:09:08.699Z,99276.30
2019-05-06T09:11:37.946Z,99269.52
2019-05-06T09:14:09.827Z,99264.98
2019-05-06T09:16:38.612Z,99266.88
2019-05-06T09:19:07.977Z,99267.02
2019-05-06T09:21:37.137Z,99266.28
2019-05-06T09:24:06.389Z,99252.94
2019-05-06T09:26:42.930Z,99251.41
2019-05-06T09:29:18.881Z,99255.59
2019-05-06T09:31:52.511Z,99260.70
2019-05-06T09:34:43.110Z,99256.68
2019-05-06T09:37:14.134Z,99258.11
2019-05-06T09:39:45.201Z,99260.88
2019-05-06T09:42:14.468Z,99260.05
2019-05-06T09:44:44.994Z,99263.84
2019-05-06T09:47:15.952Z,99260.75
2019-05-06T09:49:46.631Z,99256.78
2019-05-06T09:52:15.899Z,99263.42
2019-05-06T09:54:53.591Z,99249.14
2019-05-06T09:57:24.671Z,99247.22
2019-05-06T09:59:53.844Z,99237.98
2019-05-06T10:02:23.269Z,99246.77
2019-05-06T10:04:52.448Z,99249.81
2019-05-06T10:07:22.548Z,99244.50
2019-05-06T10:09:52.631Z,99237.14
2019-05-06T10:12:22.021Z,99238.23
2019-05-06T10:14:53.186Z,99232.16
2019-05-06T10:17:22.184Z,99226.11
2019-05-06T10:19:51.427Z,99226.11
2019-05-06T10:22:23.141Z,99225.89
2019-05-06T10:24:52.276Z,99226.35
2019-05-06T10:27:22.695Z,99228.62
2019-05-06T10:30:05.992Z,99231.70
2019-05-06T10:32:36.860Z,99233.03
2019-05-06T10:35:09.074Z,99223.92
2019-05-06T10:37:45.393Z,99222.33
2019-05-06T10:40:23.551Z,99222.69
2019-05-06T10:43:29.279Z,99227.10
2019-05-06T10:46:01.093Z,99220.70
2019-05-06T10:48:29.463Z,99211.72
2019-05-06T10:51:18.424Z,99213.80
2019-05-06T10:53:47.593Z,99207.08
2019-05-06T10:56:27.548Z,99208.39
2019-05-06T10:58:58.381Z,99205.05
2019-05-06T11:01:42.668Z,99202.67
2019-05-06T11:04:12.052Z,99211.28
2019-05-06T11:06:42.995Z,99204.03
2019-05-06T11:09:13.488Z,99214.47
2019-05-06T11:11:42.968Z,99206.23
2019-05-06T11:14:12.942Z,99208.84
2019-05-06T11:16:42.266Z,99202.34
2019-05-06T11:19:13.269Z,99198.78
2019-05-06T11:21:44.997Z,99180.62
2019-05-06T11:24:13.419Z,99192.80
2019-05-06T11:26:42.989Z,99197.30
2019-05-06T11:29:13.989Z,99200.56
2019-05-06T11:31:47.662Z,99185.48
2019-05-06T11:34:22.130Z,99184.30
2019-05-06T11:36:55.803Z,99188.94
2019-05-06T11:39:25.078Z,99188.28
2019-05-06T11:42:14.984Z,99178.77
2019-05-06T11:44:25.350Z,99187.05
2019-05-06T11:46:54.653Z,99183.78
2019-05-06T11:49:23.875Z,99177.26
2019-05-06T11:51:53.071Z,99173.27
2019-05-06T11:54:24.338Z,99171.85
2019-05-06T11:56:58.177Z,99169.56
2019-05-06T11:59:25.020Z,99170.59
2019-05-06T12:01:58.356Z,99157.09
2019-05-06T12:04:27.526Z,99158.88
2019-05-06T12:07:10.052Z,99146.91
2019-05-06T12:09:27.688Z,99172.63
2019-05-06T12:11:56.985Z,99165.19
2019-05-06T12:14:26.296Z,99155.66
2019-05-06T12:16:55.547Z,99156.20
2019-05-06T12:19:24.771Z,99160.75
2019-05-06T12:21:53.936Z,99157.13
2019-05-06T12:24:23.189Z,99155.35
2019-05-06T12:26:52.420Z,99150.70
2019-05-06T12:29:21.718Z,99148.33
2019-05-06T12:31:53.044Z,99154.30
2019-05-06T12:34:22.337Z,99140.93
2019-05-06T12:36:53.277Z,99142.59
2019-05-06T12:39:24.241Z,99142.66
2019-05-06T12:42:00.622Z,99131.84
2019-05-06T12:44:32.255Z,99135.23
2019-05-06T12:47:09.132Z,99137.75
2019-05-06T12:49:38.352Z,99136.16
2019-05-06T12:52:07.602Z,99131.30
2019-05-06T12:54:36.866Z,99130.84
2019-05-06T12:57:06.135Z,99128.86
2019-05-06T12:59:35.444Z,99126.44
2019-05-06T13:02:04.694Z,99131.32
2019-05-06T13:04:49.479Z,99119.55
2019-05-06T13:07:05.465Z,99121.91
2019-05-06T13:09:34.750Z,99132.28
2019-05-06T13:12:04.298Z,99126.92
2019-05-06T13:14:33.615Z,99129.02
2019-05-06T13:17:02.957Z,99136.66
2019-05-06T13:19:32.457Z,99134.69
2019-05-06T13:22:03.560Z,99126.80
2019-05-06T13:24:32.879Z,99123.05
2019-05-06T13:27:02.692Z,99126.01
2019-05-06T13:29:35.492Z,99114.75
2019-05-06T13:32:06.718Z,99123.19
2019-05-06T13:34:35.965Z,99120.80
2019-05-06T13:37:05.410Z,99130.17
2019-05-06T13:39:35.091Z,99129.16
2019-05-06T13:42:06.800Z,99129.30
2019-05-06T13:44:43.814Z,99131.14
2019-05-06T13:47:17.468Z,99131.69
2019-05-06T13:49:58.534Z,99131.91
2019-05-06T13:52:32.732Z,99130.70
2019-05-06T13:55:03.401Z,99127.58
2019-05-06T13:57:35.297Z,99132.76
2019-05-06T14:00:13.568Z,99123.35
2019-05-06T14:02:53.122Z,99119.03
2019-05-06T14:05:27.610Z,99127.76
2019-05-06T14:08:04.964Z,99132.58
2019-05-06T14:10:35.863Z,99120.33
2019-05-06T14:13:09.395Z,99131.73
2019-05-06T14:15:43.903Z,99129.63
2019-05-06T14:18:16.773Z,99127.69
2019-05-06T14:20:52.167Z,99129.04
2019-05-06T14:23:23.570Z,99132.82
2019-05-06T14:26:12.568Z,99114.28
2019-05-06T14:29:02.860Z,99122.65
2019-05-06T14:31:34.685Z,99126.17
2019-05-06T14:34:06.276Z,99124.97
2019-05-06T14:36:43.241Z,99123.75
2019-05-06T14:39:24.569Z,99121.59
2019-05-06T14:42:02.408Z,99119.75
2019-05-06T14:44:35.932Z,99113.98
2019-05-06T14:47:09.938Z,99121.90
2019-05-06T14:49:45.672Z,99118.83
2019-05-06T14:52:16.658Z,99129.20
2019-05-06T14:54:53.517Z,99126.17
2019-05-06T14:57:27.294Z,99129.23
2019-05-06T14:59:58.451Z,99126.81
2019-05-06T15:02:33.748Z,99124.13
2019-05-06T15:05:04.482Z,99119.50
2019-05-06T15:07:46.107Z,99122.38
2019-05-06T15:10:23.270Z,99120.33
2019-05-06T15:12:57.821Z,99120.52
2019-05-06T15:15:38.081Z,99121.47
2019-05-06T15:18:22.500Z,99122.88
2019-05-06T15:20:56.081Z,99120.91
2019-05-06T15:23:28.077Z,99126.11
2019-05-06T15:25:59.491Z,99134.06
2019-05-06T15:28:34.181Z,99134.09
2019-05-06T15:31:06.242Z,99124.73
2019-05-06T15:33:41.265Z,99125.41
2019-05-06T15:36:22.314Z,99123.86
2019-05-06T15:38:57.531Z,99117.13
2019-05-06T15:41:32.723Z,99123.65
2019-05-06T15:44:04.352Z,99123.34
2019-05-06T15:46:33.732Z,99123.93
2019-05-06T15:49:05.713Z,99121.26
2019-05-06T15:51:42.827Z,99119.57
2019-05-06T15:54:12.945Z,99119.05
2019-05-06T15:56:46.674Z,99122.54
2019-05-06T15:59:16.055Z,99116.84
2019-05-06T16:01:45.406Z,99111.98
2019-05-06T16:04:15.638Z,99117.35
2019-05-06T16:06:45.051Z,99116.95
2019-05-06T16:09:15.593Z,99122.36
2019-05-06T16:11:44.954Z,99117.45
2019-05-06T16:14:14.228Z,99124.14
2019-05-06T16:16:43.742Z,99117.61
2019-05-06T16:19:13.337Z,99126.53
2019-05-06T16:21:45.099Z,99122.06
2019-05-06T16:24:15.279Z,99125.94
2019-05-06T16:26:45.482Z,99126.92
2019-05-06T16:29:15.262Z,99131.84
2019-05-06T16:31:44.740Z,99123.80
2019-05-06T16:34:14.715Z,99127.94
2019-05-06T16:36:44.195Z,99122.72
2019-05-06T16:39:13.514Z,99126.11
2019-05-06T16:41:44.762Z,99125.03
2019-05-06T16:44:13.921Z,99124.05
2019-05-06T16:46:43.316Z,99133.46
2019-05-06T16:49:14.161Z,99133.31
2019-05-06T16:51:44.147Z,99134.94
2019-05-06T16:54:13.809Z,99135.92
2019-05-06T16:57:03.392Z,99133.46
2019-05-06T16:59:33.563Z,99133.61
2019-05-06T17:02:04.714Z,99135.62
2019-05-06T17:04:35.609Z,99141.89
2019-05-06T17:07:05.075Z,99140.30
2019-05-06T17:09:34.406Z,99141.83
2019-05-06T17:12:04.657Z,99146.42
2019-05-06T17:14:34.298Z,99150.70
2019-05-06T17:17:03.693Z,99150.03
2019-05-06T17:19:33.138Z,99146.61
2019-05-06T17:22:03.166Z,99138.95
2019-05-06T17:24:33.206Z,99144.39
2019-05-06T17:27:02.897Z,99141.48
2019-05-06T17:29:48.889Z,99152.98
2019-05-06T17:32:33.125Z,99152.27
2019-05-06T17:35:02.633Z,99147.83
2019-05-06T17:37:52.550Z,99149.39
2019-05-06T17:40:23.004Z,99150.39
2019-05-06T17:42:53.263Z,99155.13
2019-05-06T17:45:42.867Z,99164.41
2019-05-06T17:48:19.051Z,99168.42
2019-05-06T17:51:05.310Z,99166.63
2019-05-06T17:53:36.377Z,99173.28
2019-05-06T17:56:05.990Z,99173.81
2019-05-06T17:58:35.304Z,99175.20
2019-05-06T18:01:05.186Z,99182.03
2019-05-06T18:03:34.634Z,99182.91
2019-05-06T18:06:07.213Z,99185.90
2019-05-06T18:08:35.049Z,99186.73
2019-05-06T18:11:04.536Z,99196.19
2019-05-06T18:13:33.799Z,99196.87
2019-05-06T18:16:03.701Z,99197.72
2019-05-06T18:18:33.211Z,99197.75
2019-05-06T18:21:02.655Z,99199.84
2019-05-06T18:23:33.572Z,99209.80
2019-05-06T18:26:03.262Z,99206.58
2019-05-06T18:28:32.837Z,99203.86
2019-05-06T18:31:03.161Z,99206.77
2019-05-06T18:33:32.956Z,99208.75
2019-05-06T18:36:02.984Z,99210.59
2019-05-06T18:38:33.826Z,99214.89
2019-05-06T18:41:03.371Z,99220.25
2019-05-06T18:43:33.467Z,99221.50
2019-05-06T18:46:03.100Z,99223.09
2019-05-06T18:48:35.122Z,99231.53
2019-05-06T18:51:03.417Z,99224.09
2019-05-06T18:53:33.504Z,99226.41
2019-05-06T18:56:03.292Z,99234.95
2019-05-06T18:58:33.225Z,99228.56
2019-05-06T19:01:03.945Z,99234.72
2019-05-06T19:03:53.486Z,99233.06
2019-05-06T19:06:23.335Z,99234.16
2019-05-06T19:08:54.527Z,99227.87
2019-05-06T19:11:23.886Z,99233.46
2019-05-06T19:13:53.130Z,99233.06
2019-05-06T19:16:22.557Z,99236.97
2019-05-06T19:18:52.344Z,99236.23
2019-05-06T19:21:24.319Z,99246.05
2019-05-06T19:23:54.824Z,99242.86
2019-05-06T19:26:24.107Z,99245.48
2019-05-06T19:28:53.510Z,99244.89
2019-05-06T19:31:23.282Z,99245.08
2019-05-06T19:33:52.815Z,99240.92
2019-05-06T19:36:23.541Z,99244.61
2019-05-06T19:38:53.125Z,99252.64
2019-05-06T19:41:22.479Z,99245.31
2019-05-06T19:43:52.411Z,99245.81
2019-05-06T19:46:21.772Z,99238.66
2019-05-06T19:48:52.394Z,99248.30
2019-05-06T19:51:22.648Z,99253.42
2019-05-06T19:53:51.973Z,99256.36
2019-05-06T19:56:23.277Z,99249.20
2019-05-06T19:58:52.714Z,99253.79
2019-05-06T20:01:22.885Z,99253.87
2019-05-06T20:03:52.759Z,99255.64
2019-05-06T20:06:27.226Z,99257.31
2019-05-06T20:08:58.071Z,99257.31
2019-05-06T20:11:35.209Z,99244.73
2019-05-06T20:14:04.520Z,99242.48
2019-05-06T20:16:33.766Z,99245.09
2019-05-06T20:19:03.198Z,99254.60
2019-05-06T20:21:32.971Z,99262.45
2019-05-06T20:24:02.464Z,99258.89
2019-05-06T20:26:32.414Z,99251.42
2019-05-06T20:29:02.328Z,99248.87
2019-05-06T20:31:32.243Z,99252.47
2019-05-06T20:34:02.245Z,99252.24
2019-05-06T20:36:33.199Z,99242.64
2019-05-06T20:39:02.828Z,99241.91
2019-05-06T20:41:35.138Z,99247.22
2019-05-06T20:44:04.615Z,99251.34
2019-05-06T20:46:33.997Z,99244.24
2019-05-06T20:49:04.407Z,99240.56
2019-05-06T20:51:34.025Z,99230.78
2019-05-06T20:54:03.530Z,99228.60
2019-05-06T20:56:33.236Z,99227.67
2019-05-06T20:59:02.883Z,99223.44
2019-05-06T21:01:32.726Z,99226.14
2019-05-06T21:04:22.909Z,99235.06
2019-05-06T21:06:54.925Z,99246.37
2019-05-06T21:09:32.113Z,99242.86
2019-05-06T21:12:03.397Z,99253.91
2019-05-06T21:14:34.617Z,99246.02
2019-05-06T21:17:06.266Z,99247.84
2019-05-06T21:19:37.091Z,99242.67
2019-05-06T21:22:07.048Z,99238.45
2019-05-06T21:24:43.060Z,99243.00
2019-05-06T21:27:15.155Z,99244.89
2019-05-06T21:29:47.392Z,99241.99
2019-05-06T21:32:18.026Z,99245.61
2019-05-06T21:34:52.517Z,99243.60
2019-05-06T21:37:23.045Z,99247.32
2019-05-06T21:39:54.012Z,99249.64
2019-05-06T21:42:26.238Z,99247.52
2019-05-06T21:44:59.169Z,99254.84
2019-05-06T21:47:32.609Z,99255.27
2019-05-06T21:50:03.767Z,99244.58
2019-05-06T21:52:39.405Z,99215.70
2019-05-06T21:55:06.777Z,99237.37
2019-05-06T21:57:36.013Z,99240.64
2019-05-06T22:00:09.260Z,99245.29
2019-05-06T22:02:38.554Z,99248.16
2019-05-06T22:05:08.160Z,99251.63
2019-05-06T22:07:37.331Z,99248.05
2019-05-06T22:10:07.385Z,99250.58
2019-05-06T22:12:36.637Z,99243.59
2019-05-06T22:15:06.216Z,99245.02
2019-05-06T22:17:35.575Z,99249.39
2019-05-06T22:20:05.548Z,99250.77
2019-05-06T22:22:36.371Z,99249.52
2019-05-06T22:25:06.390Z,99254.67
2019-05-06T22:27:35.680Z,99254.45
2019-05-06T22:30:07.580Z,99257.05
2019-05-06T22:32:46.002Z,99252.63
2019-05-06T22:35:16.305Z,99257.06
2019-05-06T22:37:46.344Z,99269.25
2019-05-06T22:40:15.853Z,99271.99
2019-05-06T22:42:45.296Z,99268.72
2019-05-06T22:45:15.972Z,99268.37
2019-05-06T22:47:45.205Z,99259.06
2019-05-06T22:50:14.425Z,99260.95
2019-05-06T22:52:45.168Z,99263.63
2019-05-06T22:55:14.563Z,99260.17
2019-05-06T22:57:43.795Z,99259.76
2019-05-06T23:00:16.463Z,99262.41
2019-05-06T23:02:53.417Z,99260.31
2019-05-06T23:05:23.174Z,99264.63
2019-05-06T23:07:53.193Z,99259.13
2019-05-06T23:10:24.867Z,99265.78
2019-05-06T23:12:54.390Z,99267.06
2019-05-06T23:15:23.787Z,99269.66
2019-05-06T23:17:53.030Z,99263.94
2019-05-06T23:20:24.413Z,99267.22
2019-05-06T23:22:53.429Z,99263.57
2019-05-06T23:25:22.691Z,99271.31
2019-05-06T23:27:52.980Z,99276.91
2019-05-06T23:30:23.623Z,99274.81
2019-05-06T23:32:53.151Z,99280.11
2019-05-06T23:35:22.406Z,99284.77
2019-05-06T23:38:29.010Z,99288.05
2019-05-06T23:41:35.091Z,99285.46
2019-05-06T23:44:45.845Z,99279.84
2019-05-06T23:47:49.282Z,99280.06
2019-05-06T23:50:55.284Z,99276.56
2019-05-06T23:54:03.078Z,99279.09
2019-05-06T23:56:44.188Z,99274.00
2019-05-06T23:59:18.168Z,99277.00
